الصفحة الرئيسية
METAR-TAF:

METAR-TAF

مطار :

بونبي, مايكرونيزيا

دائرة عرض: 06-59N, خط طول: 158-12E, ارتفاع: 2 متر

مراقبة الطقس الحالي

تاريخ ووقت الإصدار 34 دقيقة قبل الساعة 23:50UTC
ريح 4 عقدة من الشرق/الشمال الشرقي
درجة الحرارة 30°درجة مئوية
الرطوبة 79%
ضغط 1011 hPa
الرؤية: 24.1 كم
غيوم متفرقة على ارتفاع 1800 قدم
غيوم متفرقة على ارتفاع 13000 قدم
غيوم مفككة على ارتفاع 30000 قدم

METAR: PTPN 172350Z 06004KT 15SM SCT018 SCT130 BKN300 30/26 A2984

زمن: 11:24 (00:24 UTC)

توقعات

تاريخ ووقت الإصدار 53 دقيقة قبل الساعة 23:31UTC
التوقعات صالحة من18 الساعة 00 UTC إلى 18 الساعة 24 UTC
ريح 5 عقدة من الشرق/الشمال الشرقي
الرؤية: 10 كم
غيوم متفرقة على ارتفاع 1800 قدم
زخات في الجوار

TAF: PTPN 172331Z 1800/1824 07005KT P6SM VCSH SCT018

أرصاد الطقس والتوقعات من أكثر من 4000 مطار (تقارير الطقس للمطار METAR والتنبؤ بالطقس بالمطارTAF).

المحطات المتاحة هي النقط الصفراء والحمراء على الخريطة.

حرك المؤشر فوق النقطة لمعرفة اسم المحطة.

ثم انقر لمعرفة أرصاد وتوقعات الطقس.

لتغيير الخارطة: اضغط على الأزرار الخضراء مع رمز الصليب الأسود للتكبير. على الزر الأخضر مع شرطة للتصغير، أو على الأسهم الخضراء للخرائط المجاورة.


METAR-TAF: